sensor_id;sensor_type;location;lat;lon;timestamp;temperature;humidity
73777;DHT22;62088;50.240;2.696;2022-11-23T00:00:07;8.00;87.20
73777;DHT22;62088;50.240;2.696;2022-11-23T00:02:34;8.00;87.10
73777;DHT22;62088;50.240;2.696;2022-11-23T00:05:02;8.00;87.10
73777;DHT22;62088;50.240;2.696;2022-11-23T00:07:29;8.00;87.00
73777;DHT22;62088;50.240;2.696;2022-11-23T00:09:56;8.00;86.90
73777;DHT22;62088;50.240;2.696;2022-11-23T00:12:23;8.00;86.90
73777;DHT22;62088;50.240;2.696;2022-11-23T00:14:50;7.90;86.90
73777;DHT22;62088;50.240;2.696;2022-11-23T00:17:18;7.90;86.80
73777;DHT22;62088;50.240;2.696;2022-11-23T00:20:03;7.90;86.80
73777;DHT22;62088;50.240;2.696;2022-11-23T00:22:30;7.90;86.80
73777;DHT22;62088;50.240;2.696;2022-11-23T00:24:57;7.90;86.80
73777;DHT22;62088;50.240;2.696;2022-11-23T00:27:24;7.90;86.80
73777;DHT22;62088;50.240;2.696;2022-11-23T00:29:51;7.90;86.80
73777;DHT22;62088;50.240;2.696;2022-11-23T00:32:18;7.80;86.70
73777;DHT22;62088;50.240;2.696;2022-11-23T00:34:45;7.80;86.80
73777;DHT22;62088;50.240;2.696;2022-11-23T00:37:12;7.80;86.70
73777;DHT22;62088;50.240;2.696;2022-11-23T00:39:39;7.80;86.70
73777;DHT22;62088;50.240;2.696;2022-11-23T00:42:06;7.70;86.70
73777;DHT22;62088;50.240;2.696;2022-11-23T00:44:34;7.70;86.70
73777;DHT22;62088;50.240;2.696;2022-11-23T00:47:01;7.70;86.60
73777;DHT22;62088;50.240;2.696;2022-11-23T00:49:28;7.70;86.50
73777;DHT22;62088;50.240;2.696;2022-11-23T00:51:55;7.70;86.50
73777;DHT22;62088;50.240;2.696;2022-11-23T00:54:22;7.60;86.50
73777;DHT22;62088;50.240;2.696;2022-11-23T00:56:49;7.60;86.40
73777;DHT22;62088;50.240;2.696;2022-11-23T00:59:16;7.60;86.40
73777;DHT22;62088;50.240;2.696;2022-11-23T01:01:43;7.60;86.40
73777;DHT22;62088;50.240;2.696;2022-11-23T01:04:10;7.50;86.30
73777;DHT22;62088;50.240;2.696;2022-11-23T01:06:38;7.50;86.30
73777;DHT22;62088;50.240;2.696;2022-11-23T01:09:14;7.50;86.30
73777;DHT22;62088;50.240;2.696;2022-11-23T01:11:44;7.40;86.30
73777;DHT22;62088;50.240;2.696;2022-11-23T01:14:11;7.40;86.20
73777;DHT22;62088;50.240;2.696;2022-11-23T01:16:40;7.40;86.20
73777;DHT22;62088;50.240;2.696;2022-11-23T01:19:14;7.40;86.20
73777;DHT22;62088;50.240;2.696;2022-11-23T01:21:41;7.40;86.20
73777;DHT22;62088;50.240;2.696;2022-11-23T01:24:18;7.40;86.20
73777;DHT22;62088;50.240;2.696;2022-11-23T01:26:50;7.30;86.20
73777;DHT22;62088;50.240;2.696;2022-11-23T01:29:19;7.30;86.20
73777;DHT22;62088;50.240;2.696;2022-11-23T01:31:46;7.30;86.10
73777;DHT22;62088;50.240;2.696;2022-11-23T01:34:14;7.30;86.10
73777;DHT22;62088;50.240;2.696;2022-11-23T01:36:42;7.20;86.10
73777;DHT22;62088;50.240;2.696;2022-11-23T01:39:09;7.20;86.00
73777;DHT22;62088;50.240;2.696;2022-11-23T01:41:39;7.20;86.00
73777;DHT22;62088;50.240;2.696;2022-11-23T01:44:42;7.20;86.00
73777;DHT22;62088;50.240;2.696;2022-11-23T01:47:09;7.20;85.90
73777;DHT22;62088;50.240;2.696;2022-11-23T01:49:42;7.10;85.90
73777;DHT22;62088;50.240;2.696;2022-11-23T01:52:13;7.10;85.90
73777;DHT22;62088;50.240;2.696;2022-11-23T01:54:50;7.00;85.90
73777;DHT22;62088;50.240;2.696;2022-11-23T01:57:28;7.00;85.90
73777;DHT22;62088;50.240;2.696;2022-11-23T01:59:59;7.00;86.00
73777;DHT22;62088;50.240;2.696;2022-11-23T02:02:27;7.00;86.00
73777;DHT22;62088;50.240;2.696;2022-11-23T02:04:58;7.00;86.10
73777;DHT22;62088;50.240;2.696;2022-11-23T02:07:27;7.00;86.10
73777;DHT22;62088;50.240;2.696;2022-11-23T02:09:54;7.00;86.10
73777;DHT22;62088;50.240;2.696;2022-11-23T02:12:21;7.00;86.10
73777;DHT22;62088;50.240;2.696;2022-11-23T02:14:48;7.00;86.20
73777;DHT22;62088;50.240;2.696;2022-11-23T02:17:18;7.00;86.20
73777;DHT22;62088;50.240;2.696;2022-11-23T02:19:54;7.00;86.20
73777;DHT22;62088;50.240;2.696;2022-11-23T02:25:08;7.10;86.10
73777;DHT22;62088;50.240;2.696;2022-11-23T02:27:38;7.10;86.10
73777;DHT22;62088;50.240;2.696;2022-11-23T02:30:12;7.10;86.00
73777;DHT22;62088;50.240;2.696;2022-11-23T02:32:40;7.00;86.00
73777;DHT22;62088;50.240;2.696;2022-11-23T02:35:10;7.00;85.90
73777;DHT22;62088;50.240;2.696;2022-11-23T02:37:38;7.00;85.90
73777;DHT22;62088;50.240;2.696;2022-11-23T02:40:24;7.00;85.80
73777;DHT22;62088;50.240;2.696;2022-11-23T02:42:51;7.00;85.70
73777;DHT22;62088;50.240;2.696;2022-11-23T02:45:50;7.00;85.70
73777;DHT22;62088;50.240;2.696;2022-11-23T02:48:19;7.00;85.60
73777;DHT22;62088;50.240;2.696;2022-11-23T02:51:03;7.00;85.60
73777;DHT22;62088;50.240;2.696;2022-11-23T02:53:31;7.00;85.60
73777;DHT22;62088;50.240;2.696;2022-11-23T02:55:58;7.00;85.70
73777;DHT22;62088;50.240;2.696;2022-11-23T02:58:25;6.90;85.70
73777;DHT22;62088;50.240;2.696;2022-11-23T03:00:52;6.90;85.60
73777;DHT22;62088;50.240;2.696;2022-11-23T03:03:20;6.90;85.60
73777;DHT22;62088;50.240;2.696;2022-11-23T03:05:47;6.90;85.60
73777;DHT22;62088;50.240;2.696;2022-11-23T03:08:14;6.90;85.50
73777;DHT22;62088;50.240;2.696;2022-11-23T03:10:41;6.90;85.50
73777;DHT22;62088;50.240;2.696;2022-11-23T03:13:08;6.90;85.40
73777;DHT22;62088;50.240;2.696;2022-11-23T03:15:37;6.90;85.40
73777;DHT22;62088;50.240;2.696;2022-11-23T03:18:05;6.80;85.40
73777;DHT22;62088;50.240;2.696;2022-11-23T03:20:33;6.80;85.30
73777;DHT22;62088;50.240;2.696;2022-11-23T03:23:00;6.80;85.20
73777;DHT22;62088;50.240;2.696;2022-11-23T03:25:27;6.80;85.20
73777;DHT22;62088;50.240;2.696;2022-11-23T03:27:55;6.70;85.20
73777;DHT22;62088;50.240;2.696;2022-11-23T03:30:22;6.70;85.30
73777;DHT22;62088;50.240;2.696;2022-11-23T03:32:49;6.70;85.30
73777;DHT22;62088;50.240;2.696;2022-11-23T03:35:17;6.70;85.20
73777;DHT22;62088;50.240;2.696;2022-11-23T03:38:07;6.60;85.20
73777;DHT22;62088;50.240;2.696;2022-11-23T03:40:34;6.50;85.20
73777;DHT22;62088;50.240;2.696;2022-11-23T03:43:22;6.60;85.20
73777;DHT22;62088;50.240;2.696;2022-11-23T03:45:50;6.50;85.20
73777;DHT22;62088;50.240;2.696;2022-11-23T03:48:17;6.50;85.20
73777;DHT22;62088;50.240;2.696;2022-11-23T03:50:44;6.40;85.20
73777;DHT22;62088;50.240;2.696;2022-11-23T03:53:12;6.40;85.20
73777;DHT22;62088;50.240;2.696;2022-11-23T03:55:39;6.40;85.20
73777;DHT22;62088;50.240;2.696;2022-11-23T03:58:06;6.40;85.30
73777;DHT22;62088;50.240;2.696;2022-11-23T04:00:34;6.40;85.20
73777;DHT22;62088;50.240;2.696;2022-11-23T04:03:02;6.30;85.20
73777;DHT22;62088;50.240;2.696;2022-11-23T04:05:48;6.30;85.20
73777;DHT22;62088;50.240;2.696;2022-11-23T04:08:18;6.30;85.20
73777;DHT22;62088;50.240;2.696;2022-11-23T04:10:46;6.20;85.20
73777;DHT22;62088;50.240;2.696;2022-11-23T04:13:17;6.20;85.30
73777;DHT22;62088;50.240;2.696;2022-11-23T04:15:44;6.20;85.30
73777;DHT22;62088;50.240;2.696;2022-11-23T04:18:11;6.20;85.30
73777;DHT22;62088;50.240;2.696;2022-11-23T04:20:38;6.10;85.40
73777;DHT22;62088;50.240;2.696;2022-11-23T04:23:06;6.10;85.40
73777;DHT22;62088;50.240;2.696;2022-11-23T04:25:39;6.10;85.40
73777;DHT22;62088;50.240;2.696;2022-11-23T04:28:07;6.00;85.40
73777;DHT22;62088;50.240;2.696;2022-11-23T04:30:34;6.00;85.40
73777;DHT22;62088;50.240;2.696;2022-11-23T04:33:01;6.00;85.30
73777;DHT22;62088;50.240;2.696;2022-11-23T04:35:29;6.00;85.30
73777;DHT22;62088;50.240;2.696;2022-11-23T04:37:57;6.00;85.30
73777;DHT22;62088;50.240;2.696;2022-11-23T04:40:26;6.00;85.40
73777;DHT22;62088;50.240;2.696;2022-11-23T04:42:57;5.90;85.40
73777;DHT22;62088;50.240;2.696;2022-11-23T04:45:30;5.90;85.40
73777;DHT22;62088;50.240;2.696;2022-11-23T04:48:02;5.90;85.40
73777;DHT22;62088;50.240;2.696;2022-11-23T04:50:31;5.90;85.50
73777;DHT22;62088;50.240;2.696;2022-11-23T04:53:00;5.80;85.50
73777;DHT22;62088;50.240;2.696;2022-11-23T04:55:35;5.80;85.60
73777;DHT22;62088;50.240;2.696;2022-11-23T04:58:03;5.80;85.60
73777;DHT22;62088;50.240;2.696;2022-11-23T05:00:32;5.80;85.60
73777;DHT22;62088;50.240;2.696;2022-11-23T05:03:02;5.80;85.70
73777;DHT22;62088;50.240;2.696;2022-11-23T05:05:32;5.70;85.70
73777;DHT22;62088;50.240;2.696;2022-11-23T05:08:00;5.70;85.70
73777;DHT22;62088;50.240;2.696;2022-11-23T05:10:43;5.70;85.70
73777;DHT22;62088;50.240;2.696;2022-11-23T05:13:10;5.70;85.80
73777;DHT22;62088;50.240;2.696;2022-11-23T05:15:37;5.70;85.80
73777;DHT22;62088;50.240;2.696;2022-11-23T05:18:06;5.70;85.90
73777;DHT22;62088;50.240;2.696;2022-11-23T05:20:34;5.60;86.00
73777;DHT22;62088;50.240;2.696;2022-11-23T05:23:01;5.60;86.00
73777;DHT22;62088;50.240;2.696;2022-11-23T05:25:31;5.60;86.10
73777;DHT22;62088;50.240;2.696;2022-11-23T05:28:01;5.60;86.10
73777;DHT22;62088;50.240;2.696;2022-11-23T05:30:49;5.60;86.20
73777;DHT22;62088;50.240;2.696;2022-11-23T05:33:16;5.60;86.20
73777;DHT22;62088;50.240;2.696;2022-11-23T05:35:43;5.60;86.30
73777;DHT22;62088;50.240;2.696;2022-11-23T05:38:10;5.60;86.30
73777;DHT22;62088;50.240;2.696;2022-11-23T05:40:37;5.60;86.30
73777;DHT22;62088;50.240;2.696;2022-11-23T05:43:05;5.60;86.30
73777;DHT22;62088;50.240;2.696;2022-11-23T05:45:34;5.60;86.40
73777;DHT22;62088;50.240;2.696;2022-11-23T05:48:01;5.60;86.50
73777;DHT22;62088;50.240;2.696;2022-11-23T05:51:06;5.60;86.60
73777;DHT22;62088;50.240;2.696;2022-11-23T05:53:37;5.60;86.70
73777;DHT22;62088;50.240;2.696;2022-11-23T05:56:14;5.60;86.80
73777;DHT22;62088;50.240;2.696;2022-11-23T05:58:55;5.60;86.90
73777;DHT22;62088;50.240;2.696;2022-11-23T06:01:22;5.60;87.00
73777;DHT22;62088;50.240;2.696;2022-11-23T06:03:51;5.60;87.00
73777;DHT22;62088;50.240;2.696;2022-11-23T06:06:18;5.70;87.00
73777;DHT22;62088;50.240;2.696;2022-11-23T06:08:46;5.70;87.00
73777;DHT22;62088;50.240;2.696;2022-11-23T06:11:19;5.70;87.00
73777;DHT22;62088;50.240;2.696;2022-11-23T06:13:47;5.70;87.10
73777;DHT22;62088;50.240;2.696;2022-11-23T06:16:16;5.70;87.10
73777;DHT22;62088;50.240;2.696;2022-11-23T06:18:56;5.70;87.10
73777;DHT22;62088;50.240;2.696;2022-11-23T06:21:23;5.70;87.10
73777;DHT22;62088;50.240;2.696;2022-11-23T06:23:50;5.80;87.20
73777;DHT22;62088;50.240;2.696;2022-11-23T06:26:19;5.80;87.20
73777;DHT22;62088;50.240;2.696;2022-11-23T06:28:47;5.80;87.20
73777;DHT22;62088;50.240;2.696;2022-11-23T06:31:16;5.80;87.30
73777;DHT22;62088;50.240;2.696;2022-11-23T06:33:43;5.80;87.30
73777;DHT22;62088;50.240;2.696;2022-11-23T06:36:10;5.80;87.40
73777;DHT22;62088;50.240;2.696;2022-11-23T06:38:45;5.80;87.40
73777;DHT22;62088;50.240;2.696;2022-11-23T06:41:16;5.90;87.50
73777;DHT22;62088;50.240;2.696;2022-11-23T06:43:46;5.90;87.50
73777;DHT22;62088;50.240;2.696;2022-11-23T06:46:20;5.90;87.50
73777;DHT22;62088;50.240;2.696;2022-11-23T06:48:47;5.90;87.60
73777;DHT22;62088;50.240;2.696;2022-11-23T06:51:14;5.90;87.60
73777;DHT22;62088;50.240;2.696;2022-11-23T06:53:43;5.90;87.70
73777;DHT22;62088;50.240;2.696;2022-11-23T06:56:12;5.90;87.70
73777;DHT22;62088;50.240;2.696;2022-11-23T06:58:39;6.00;87.80
73777;DHT22;62088;50.240;2.696;2022-11-23T07:01:11;6.00;87.70
73777;DHT22;62088;50.240;2.696;2022-11-23T07:03:45;6.00;87.80
73777;DHT22;62088;50.240;2.696;2022-11-23T07:06:28;6.00;87.80
73777;DHT22;62088;50.240;2.696;2022-11-23T07:08:58;6.00;87.80
73777;DHT22;62088;50.240;2.696;2022-11-23T07:11:36;6.00;87.90
73777;DHT22;62088;50.240;2.696;2022-11-23T07:14:03;6.10;87.90
73777;DHT22;62088;50.240;2.696;2022-11-23T07:16:30;6.10;87.90
73777;DHT22;62088;50.240;2.696;2022-11-23T07:18:57;6.10;87.90
73777;DHT22;62088;50.240;2.696;2022-11-23T07:21:24;6.10;87.90
73777;DHT22;62088;50.240;2.696;2022-11-23T07:23:52;6.20;88.00
73777;DHT22;62088;50.240;2.696;2022-11-23T07:26:19;6.20;87.90
73777;DHT22;62088;50.240;2.696;2022-11-23T07:28:46;6.20;88.00
73777;DHT22;62088;50.240;2.696;2022-11-23T07:31:14;6.20;87.90
73777;DHT22;62088;50.240;2.696;2022-11-23T07:33:45;6.20;87.90
73777;DHT22;62088;50.240;2.696;2022-11-23T07:36:13;6.20;87.90
73777;DHT22;62088;50.240;2.696;2022-11-23T07:38:42;6.30;87.90
73777;DHT22;62088;50.240;2.696;2022-11-23T07:41:12;6.30;87.90
73777;DHT22;62088;50.240;2.696;2022-11-23T07:44:15;6.30;87.80
73777;DHT22;62088;50.240;2.696;2022-11-23T07:46:43;6.30;87.80
73777;DHT22;62088;50.240;2.696;2022-11-23T07:49:10;6.30;87.90
73777;DHT22;62088;50.240;2.696;2022-11-23T07:51:37;6.30;87.90
73777;DHT22;62088;50.240;2.696;2022-11-23T07:54:04;6.30;87.90
73777;DHT22;62088;50.240;2.696;2022-11-23T07:56:31;6.40;88.00
73777;DHT22;62088;50.240;2.696;2022-11-23T07:58:58;6.40;88.00
73777;DHT22;62088;50.240;2.696;2022-11-23T08:01:25;6.40;88.00
73777;DHT22;62088;50.240;2.696;2022-11-23T08:03:52;6.40;88.10
73777;DHT22;62088;50.240;2.696;2022-11-23T08:06:20;6.40;88.10
73777;DHT22;62088;50.240;2.696;2022-11-23T08:08:48;6.40;88.10
73777;DHT22;62088;50.240;2.696;2022-11-23T08:11:15;6.50;88.20
73777;DHT22;62088;50.240;2.696;2022-11-23T08:13:44;6.50;88.20
73777;DHT22;62088;50.240;2.696;2022-11-23T08:16:11;6.50;88.20
73777;DHT22;62088;50.240;2.696;2022-11-23T08:18:38;6.50;88.20
73777;DHT22;62088;50.240;2.696;2022-11-23T08:21:05;6.60;88.30
73777;DHT22;62088;50.240;2.696;2022-11-23T08:23:32;6.60;88.20
73777;DHT22;62088;50.240;2.696;2022-11-23T08:26:02;6.60;88.20
73777;DHT22;62088;50.240;2.696;2022-11-23T08:28:36;6.60;88.30
73777;DHT22;62088;50.240;2.696;2022-11-23T08:31:06;6.60;88.30
73777;DHT22;62088;50.240;2.696;2022-11-23T08:33:33;6.60;88.30
73777;DHT22;62088;50.240;2.696;2022-11-23T08:36:04;6.70;88.30
73777;DHT22;62088;50.240;2.696;2022-11-23T08:38:32;6.70;88.30
73777;DHT22;62088;50.240;2.696;2022-11-23T08:41:00;6.70;88.30
73777;DHT22;62088;50.240;2.696;2022-11-23T08:43:27;6.70;88.30
73777;DHT22;62088;50.240;2.696;2022-11-23T08:45:55;6.70;88.30
73777;DHT22;62088;50.240;2.696;2022-11-23T08:48:30;6.70;88.30
73777;DHT22;62088;50.240;2.696;2022-11-23T08:50:58;6.80;88.30
73777;DHT22;62088;50.240;2.696;2022-11-23T08:53:26;6.80;88.30
73777;DHT22;62088;50.240;2.696;2022-11-23T08:55:53;6.80;88.30
73777;DHT22;62088;50.240;2.696;2022-11-23T08:58:20;6.80;88.30
73777;DHT22;62088;50.240;2.696;2022-11-23T09:00:47;6.90;88.30
73777;DHT22;62088;50.240;2.696;2022-11-23T09:03:14;6.90;88.30
73777;DHT22;62088;50.240;2.696;2022-11-23T09:05:41;6.90;88.30
73777;DHT22;62088;50.240;2.696;2022-11-23T09:08:08;6.90;88.30
73777;DHT22;62088;50.240;2.696;2022-11-23T09:10:35;6.90;88.20
73777;DHT22;62088;50.240;2.696;2022-11-23T09:13:03;7.00;88.20
73777;DHT22;62088;50.240;2.696;2022-11-23T09:15:30;7.00;88.10
73777;DHT22;62088;50.240;2.696;2022-11-23T09:17:57;7.00;88.10
73777;DHT22;62088;50.240;2.696;2022-11-23T09:20:24;7.00;88.00
73777;DHT22;62088;50.240;2.696;2022-11-23T09:22:55;7.00;88.00
73777;DHT22;62088;50.240;2.696;2022-11-23T09:25:22;7.00;88.00
73777;DHT22;62088;50.240;2.696;2022-11-23T09:27:56;7.00;88.00
73777;DHT22;62088;50.240;2.696;2022-11-23T09:30:23;7.10;88.00
73777;DHT22;62088;50.240;2.696;2022-11-23T09:32:50;7.10;87.90
73777;DHT22;62088;50.240;2.696;2022-11-23T09:35:17;7.10;87.90
73777;DHT22;62088;50.240;2.696;2022-11-23T09:37:44;7.10;87.90
73777;DHT22;62088;50.240;2.696;2022-11-23T09:40:14;7.10;87.90
73777;DHT22;62088;50.240;2.696;2022-11-23T09:45:50;7.20;88.00
73777;DHT22;62088;50.240;2.696;2022-11-23T09:48:35;7.20;88.00
73777;DHT22;62088;50.240;2.696;2022-11-23T09:56:40;7.20;88.10
73777;DHT22;62088;50.240;2.696;2022-11-23T10:01:57;7.30;88.10
73777;DHT22;62088;50.240;2.696;2022-11-23T10:04:24;7.30;88.10
73777;DHT22;62088;50.240;2.696;2022-11-23T10:07:02;7.30;88.20
73777;DHT22;62088;50.240;2.696;2022-11-23T10:12:21;7.30;88.30
73777;DHT22;62088;50.240;2.696;2022-11-23T10:23:00;7.40;88.50
73777;DHT22;62088;50.240;2.696;2022-11-23T10:25:35;7.40;88.50
73777;DHT22;62088;50.240;2.696;2022-11-23T10:28:16;7.40;88.50
73777;DHT22;62088;50.240;2.696;2022-11-23T10:31:02;7.50;88.60
73777;DHT22;62088;50.240;2.696;2022-11-23T10:33:53;7.50;88.70
73777;DHT22;62088;50.240;2.696;2022-11-23T10:36:19;7.50;88.70
73777;DHT22;62088;50.240;2.696;2022-11-23T10:38:49;7.50;88.70
73777;DHT22;62088;50.240;2.696;2022-11-23T10:41:19;7.50;88.70
73777;DHT22;62088;50.240;2.696;2022-11-23T10:44:22;7.60;88.80
73777;DHT22;62088;50.240;2.696;2022-11-23T10:46:51;7.60;88.80
73777;DHT22;62088;50.240;2.696;2022-11-23T10:49:21;7.70;88.80
73777;DHT22;62088;50.240;2.696;2022-11-23T10:51:53;7.70;88.80
73777;DHT22;62088;50.240;2.696;2022-11-23T10:55:08;7.70;88.80
73777;DHT22;62088;50.240;2.696;2022-11-23T10:57:31;7.70;88.70
73777;DHT22;62088;50.240;2.696;2022-11-23T11:00:03;7.70;88.70
73777;DHT22;62088;50.240;2.696;2022-11-23T11:02:39;7.70;88.70
73777;DHT22;62088;50.240;2.696;2022-11-23T11:05:31;7.70;88.70
73777;DHT22;62088;50.240;2.696;2022-11-23T11:08:20;7.80;88.70
73777;DHT22;62088;50.240;2.696;2022-11-23T11:10:49;7.80;88.70
73777;DHT22;62088;50.240;2.696;2022-11-23T11:14:23;7.80;88.70
73777;DHT22;62088;50.240;2.696;2022-11-23T11:16:21;7.80;88.70
73777;DHT22;62088;50.240;2.696;2022-11-23T11:18:51;7.90;88.70
73777;DHT22;62088;50.240;2.696;2022-11-23T11:21:25;7.80;88.70
73777;DHT22;62088;50.240;2.696;2022-11-23T11:24:05;7.90;88.70
73777;DHT22;62088;50.240;2.696;2022-11-23T11:26:50;7.90;88.70
73777;DHT22;62088;50.240;2.696;2022-11-23T11:29:38;7.90;88.60
73777;DHT22;62088;50.240;2.696;2022-11-23T11:32:48;7.90;88.60
73777;DHT22;62088;50.240;2.696;2022-11-23T11:35:31;7.90;88.60
73777;DHT22;62088;50.240;2.696;2022-11-23T11:38:07;7.90;88.60
73777;DHT22;62088;50.240;2.696;2022-11-23T11:40:47;7.90;88.60
73777;DHT22;62088;50.240;2.696;2022-11-23T11:43:22;7.90;88.70
73777;DHT22;62088;50.240;2.696;2022-11-23T11:46:15;7.90;88.60
73777;DHT22;62088;50.240;2.696;2022-11-23T11:51:44;8.00;88.60
73777;DHT22;62088;50.240;2.696;2022-11-23T11:54:27;8.00;88.60
73777;DHT22;62088;50.240;2.696;2022-11-23T11:57:17;8.00;88.50
73777;DHT22;62088;50.240;2.696;2022-11-23T11:59:48;8.00;88.50
73777;DHT22;62088;50.240;2.696;2022-11-23T12:02:39;8.00;88.50
73777;DHT22;62088;50.240;2.696;2022-11-23T12:13:01;7.90;88.40
73777;DHT22;62088;50.240;2.696;2022-11-23T12:15:36;8.00;88.50
73777;DHT22;62088;50.240;2.696;2022-11-23T12:18:47;8.00;88.50
73777;DHT22;62088;50.240;2.696;2022-11-23T12:21:25;8.00;88.50
73777;DHT22;62088;50.240;2.696;2022-11-23T12:29:20;8.00;88.60
73777;DHT22;62088;50.240;2.696;2022-11-23T12:44:02;8.10;88.70
73777;DHT22;62088;50.240;2.696;2022-11-23T12:54:53;8.30;88.90
73777;DHT22;62088;50.240;2.696;2022-11-23T12:57:38;8.40;88.90
73777;DHT22;62088;50.240;2.696;2022-11-23T13:00:29;8.40;89.20
73777;DHT22;62088;50.240;2.696;2022-11-23T13:08:56;8.90;89.70
73777;DHT22;62088;50.240;2.696;2022-11-23T13:16:58;9.20;89.70
73777;DHT22;62088;50.240;2.696;2022-11-23T13:22:05;9.40;89.70
73777;DHT22;62088;50.240;2.696;2022-11-23T13:24:37;9.50;89.60
73777;DHT22;62088;50.240;2.696;2022-11-23T13:30:06;9.60;89.50
73777;DHT22;62088;50.240;2.696;2022-11-23T13:40:28;9.90;89.40
73777;DHT22;62088;50.240;2.696;2022-11-23T13:45:37;10.00;89.20
73777;DHT22;62088;50.240;2.696;2022-11-23T13:48:16;10.00;89.00
73777;DHT22;62088;50.240;2.696;2022-11-23T14:07:29;10.00;88.20
73777;DHT22;62088;50.240;2.696;2022-11-23T14:10:17;10.00;88.10
73777;DHT22;62088;50.240;2.696;2022-11-23T14:13:01;10.00;88.00
73777;DHT22;62088;50.240;2.696;2022-11-23T14:15:33;10.00;88.00
73777;DHT22;62088;50.240;2.696;2022-11-23T14:32:04;9.90;87.60
73777;DHT22;62088;50.240;2.696;2022-11-23T14:43:12;9.90;87.50
73777;DHT22;62088;50.240;2.696;2022-11-23T14:45:41;9.90;87.50
73777;DHT22;62088;50.240;2.696;2022-11-23T14:48:33;9.90;87.50
73777;DHT22;62088;50.240;2.696;2022-11-23T14:51:04;9.90;87.40
73777;DHT22;62088;50.240;2.696;2022-11-23T14:53:35;9.90;87.40
73777;DHT22;62088;50.240;2.696;2022-11-23T14:58:47;9.90;87.20
73777;DHT22;62088;50.240;2.696;2022-11-23T15:01:20;9.90;87.20
73777;DHT22;62088;50.240;2.696;2022-11-23T15:03:58;9.90;87.10
73777;DHT22;62088;50.240;2.696;2022-11-23T15:06:29;9.80;87.10
73777;DHT22;62088;50.240;2.696;2022-11-23T15:11:40;9.70;87.00
73777;DHT22;62088;50.240;2.696;2022-11-23T15:14:19;9.80;86.90
73777;DHT22;62088;50.240;2.696;2022-11-23T15:16:46;9.80;86.90
73777;DHT22;62088;50.240;2.696;2022-11-23T15:19:28;9.70;86.80
73777;DHT22;62088;50.240;2.696;2022-11-23T15:21:56;9.70;86.50
73777;DHT22;62088;50.240;2.696;2022-11-23T15:24:25;9.70;86.30
73777;DHT22;62088;50.240;2.696;2022-11-23T15:26:56;9.60;86.30
73777;DHT22;62088;50.240;2.696;2022-11-23T15:29:36;9.60;86.40
73777;DHT22;62088;50.240;2.696;2022-11-23T15:32:29;9.60;86.40
73777;DHT22;62088;50.240;2.696;2022-11-23T15:35:10;9.60;86.30
73777;DHT22;62088;50.240;2.696;2022-11-23T15:37:47;9.50;86.20
73777;DHT22;62088;50.240;2.696;2022-11-23T15:40:17;9.50;86.00
73777;DHT22;62088;50.240;2.696;2022-11-23T15:42:46;9.50;86.00
73777;DHT22;62088;50.240;2.696;2022-11-23T15:48:22;9.40;85.80
73777;DHT22;62088;50.240;2.696;2022-11-23T15:50:56;9.40;85.80
73777;DHT22;62088;50.240;2.696;2022-11-23T15:53:31;9.40;85.80
73777;DHT22;62088;50.240;2.696;2022-11-23T15:56:03;9.30;85.80
73777;DHT22;62088;50.240;2.696;2022-11-23T15:58:31;9.20;85.80
73777;DHT22;62088;50.240;2.696;2022-11-23T16:01:11;9.20;85.80
73777;DHT22;62088;50.240;2.696;2022-11-23T16:08:54;9.10;85.80
73777;DHT22;62088;50.240;2.696;2022-11-23T16:11:33;9.10;85.90
73777;DHT22;62088;50.240;2.696;2022-11-23T16:14:27;9.00;85.90
73777;DHT22;62088;50.240;2.696;2022-11-23T16:17:19;9.00;85.90
73777;DHT22;62088;50.240;2.696;2022-11-23T16:19:49;9.00;85.90
73777;DHT22;62088;50.240;2.696;2022-11-23T16:24:49;8.90;85.90
73777;DHT22;62088;50.240;2.696;2022-11-23T16:27:22;8.90;85.80
73777;DHT22;62088;50.240;2.696;2022-11-23T16:29:51;8.80;85.90
73777;DHT22;62088;50.240;2.696;2022-11-23T16:32:25;8.80;85.90
73777;DHT22;62088;50.240;2.696;2022-11-23T16:34:53;8.80;86.00
73777;DHT22;62088;50.240;2.696;2022-11-23T16:37:21;8.70;86.00
73777;DHT22;62088;50.240;2.696;2022-11-23T16:39:48;8.70;86.10
73777;DHT22;62088;50.240;2.696;2022-11-23T16:42:16;8.70;86.20
73777;DHT22;62088;50.240;2.696;2022-11-23T16:44:43;8.70;86.20
73777;DHT22;62088;50.240;2.696;2022-11-23T16:47:22;8.70;86.30
73777;DHT22;62088;50.240;2.696;2022-11-23T16:49:50;8.70;86.40
73777;DHT22;62088;50.240;2.696;2022-11-23T16:52:18;8.70;86.40
73777;DHT22;62088;50.240;2.696;2022-11-23T16:54:45;8.70;86.50
73777;DHT22;62088;50.240;2.696;2022-11-23T16:57:26;8.70;86.50
73777;DHT22;62088;50.240;2.696;2022-11-23T16:59:55;8.70;86.60
73777;DHT22;62088;50.240;2.696;2022-11-23T17:02:22;8.70;86.60
73777;DHT22;62088;50.240;2.696;2022-11-23T17:04:49;8.70;86.60
73777;DHT22;62088;50.240;2.696;2022-11-23T17:07:16;8.70;86.70
73777;DHT22;62088;50.240;2.696;2022-11-23T17:09:44;8.70;86.70
73777;DHT22;62088;50.240;2.696;2022-11-23T17:12:18;8.70;86.70
73777;DHT22;62088;50.240;2.696;2022-11-23T17:14:47;8.70;86.70
73777;DHT22;62088;50.240;2.696;2022-11-23T17:17:21;8.70;86.80
73777;DHT22;62088;50.240;2.696;2022-11-23T17:19:49;8.70;86.90
73777;DHT22;62088;50.240;2.696;2022-11-23T17:22:17;8.80;87.00
73777;DHT22;62088;50.240;2.696;2022-11-23T17:24:45;8.80;87.20
73777;DHT22;62088;50.240;2.696;2022-11-23T17:27:16;8.90;87.40
73777;DHT22;62088;50.240;2.696;2022-11-23T17:29:44;8.90;87.40
73777;DHT22;62088;50.240;2.696;2022-11-23T17:32:13;8.90;87.30
73777;DHT22;62088;50.240;2.696;2022-11-23T17:34:40;9.00;87.30
73777;DHT22;62088;50.240;2.696;2022-11-23T17:37:16;9.00;87.20
73777;DHT22;62088;50.240;2.696;2022-11-23T17:39:45;9.00;87.20
73777;DHT22;62088;50.240;2.696;2022-11-23T17:42:12;9.00;87.20
73777;DHT22;62088;50.240;2.696;2022-11-23T17:44:39;9.00;87.10
73777;DHT22;62088;50.240;2.696;2022-11-23T17:47:15;9.00;87.10
73777;DHT22;62088;50.240;2.696;2022-11-23T17:49:44;9.00;87.00
73777;DHT22;62088;50.240;2.696;2022-11-23T17:52:11;9.00;87.00
73777;DHT22;62088;50.240;2.696;2022-11-23T17:54:38;9.00;87.00
73777;DHT22;62088;50.240;2.696;2022-11-23T17:57:05;8.90;87.00
73777;DHT22;62088;50.240;2.696;2022-11-23T17:59:32;8.90;86.90
73777;DHT22;62088;50.240;2.696;2022-11-23T18:02:00;8.90;86.80
73777;DHT22;62088;50.240;2.696;2022-11-23T18:04:27;8.90;86.80
73777;DHT22;62088;50.240;2.696;2022-11-23T18:06:54;8.90;86.80
73777;DHT22;62088;50.240;2.696;2022-11-23T18:09:21;8.90;86.70
73777;DHT22;62088;50.240;2.696;2022-11-23T18:11:48;8.90;86.70
73777;DHT22;62088;50.240;2.696;2022-11-23T18:14:15;8.80;86.60
73777;DHT22;62088;50.240;2.696;2022-11-23T18:16:44;8.80;86.60
73777;DHT22;62088;50.240;2.696;2022-11-23T18:19:11;8.70;86.60
73777;DHT22;62088;50.240;2.696;2022-11-23T18:21:40;8.70;86.60
73777;DHT22;62088;50.240;2.696;2022-11-23T18:24:07;8.70;86.60
73777;DHT22;62088;50.240;2.696;2022-11-23T18:26:34;8.70;86.60
73777;DHT22;62088;50.240;2.696;2022-11-23T18:29:02;8.70;86.70
73777;DHT22;62088;50.240;2.696;2022-11-23T18:31:29;8.70;86.70
73777;DHT22;62088;50.240;2.696;2022-11-23T18:33:56;8.70;86.70
73777;DHT22;62088;50.240;2.696;2022-11-23T18:36:24;8.70;86.70